createdAt,value
2022-12-03T00:00:22.176Z,11.20
2022-12-03T00:02:48.842Z,11.43
2022-12-03T00:05:15.442Z,10.38
2022-12-03T00:07:42.003Z,13.23
2022-12-03T00:10:08.865Z,12.15
2022-12-03T00:12:35.267Z,12.25
2022-12-03T00:15:01.725Z,12.35
2022-12-03T00:17:28.174Z,11.35
2022-12-03T00:19:54.563Z,12.93
2022-12-03T00:22:20.991Z,11.10
2022-12-03T00:24:47.403Z,12.15
2022-12-03T00:27:13.831Z,11.55
2022-12-03T00:29:40.326Z,11.98
2022-12-03T00:32:06.975Z,12.05
2022-12-03T00:34:33.728Z,12.05
2022-12-03T00:37:00.206Z,11.85
2022-12-03T00:39:26.715Z,11.23
2022-12-03T00:41:53.167Z,12.77
2022-12-03T00:44:19.661Z,12.25
2022-12-03T00:46:46.205Z,11.68
2022-12-03T00:49:12.752Z,12.55
2022-12-03T00:51:39.215Z,11.90
2022-12-03T00:54:06.729Z,12.52
2022-12-03T00:56:33.983Z,12.18
2022-12-03T00:59:00.409Z,11.70
2022-12-03T01:01:26.901Z,11.93
2022-12-03T01:03:53.373Z,12.55
2022-12-03T01:06:20.313Z,11.80
2022-12-03T01:08:46.786Z,12.80
2022-12-03T01:11:31.606Z,11.93
2022-12-03T01:13:58.051Z,11.85
2022-12-03T01:16:24.550Z,12.15
2022-12-03T01:18:52.759Z,12.50
2022-12-03T01:21:19.607Z,11.57
2022-12-03T01:23:46.847Z,12.50
2022-12-03T01:26:13.444Z,12.05
2022-12-03T01:28:41.964Z,11.77
2022-12-03T01:31:27.666Z,13.02
2022-12-03T01:33:54.261Z,10.88
2022-12-03T01:36:21.674Z,11.73
2022-12-03T01:38:49.422Z,11.63
2022-12-03T01:41:20.891Z,10.95
2022-12-03T01:43:47.942Z,11.95
2022-12-03T01:46:18.676Z,12.02
2022-12-03T01:48:46.433Z,11.23
2022-12-03T01:51:14.676Z,10.93
2022-12-03T01:53:41.966Z,11.95
2022-12-03T01:56:12.270Z,12.45
2022-12-03T01:58:39.501Z,12.50
2022-12-03T02:01:18.069Z,12.73
2022-12-03T02:03:46.113Z,12.07
2022-12-03T02:06:21.116Z,12.70
2022-12-03T02:08:49.082Z,13.07
2022-12-03T02:11:24.815Z,12.50
2022-12-03T02:13:55.385Z,12.55
2022-12-03T02:16:23.729Z,12.30
2022-12-03T02:18:50.376Z,12.55
2022-12-03T02:21:22.627Z,13.20
2022-12-03T02:24:15.007Z,11.82
2022-12-03T02:26:41.500Z,12.20
2022-12-03T02:29:08.151Z,11.95
2022-12-03T02:31:34.664Z,12.85
2022-12-03T02:34:06.359Z,12.18
2022-12-03T02:36:33.177Z,11.80
2022-12-03T02:39:00.536Z,12.50
2022-12-03T02:41:45.606Z,13.10
2022-12-03T02:44:12.400Z,11.30
2022-12-03T02:46:39.134Z,11.73
2022-12-03T02:49:06.456Z,12.35
2022-12-03T02:51:34.722Z,12.23
2022-12-03T02:54:02.861Z,12.68
2022-12-03T02:56:31.227Z,11.25
2022-12-03T02:59:01.688Z,12.38
2022-12-03T03:01:28.361Z,12.45
2022-12-03T03:03:55.559Z,12.65
2022-12-03T03:06:22.514Z,12.48
2022-12-03T03:08:49.243Z,12.50
2022-12-03T03:11:15.786Z,13.10
2022-12-03T03:13:42.537Z,12.45
2022-12-03T03:16:09.873Z,11.30
2022-12-03T03:18:36.939Z,12.48
2022-12-03T03:21:04.146Z,11.88
2022-12-03T03:23:30.602Z,13.38
2022-12-03T03:26:01.347Z,12.93
2022-12-03T03:28:29.867Z,12.25
2022-12-03T03:30:58.569Z,13.05
2022-12-03T03:33:25.142Z,13.60
2022-12-03T03:35:51.646Z,12.63
2022-12-03T03:38:19.886Z,13.27
2022-12-03T03:40:48.108Z,12.40
2022-12-03T03:43:15.352Z,13.02
2022-12-03T03:45:42.910Z,13.68
2022-12-03T03:48:10.239Z,11.68
2022-12-03T03:50:37.109Z,12.43
2022-12-03T03:53:04.800Z,13.10
2022-12-03T03:55:32.216Z,12.52
2022-12-03T03:57:58.953Z,14.27
2022-12-03T04:00:25.604Z,12.77
2022-12-03T04:02:52.856Z,14.07
2022-12-03T04:05:21.816Z,13.30
2022-12-03T04:07:48.534Z,13.60
2022-12-03T04:10:36.188Z,13.35
2022-12-03T04:13:02.914Z,13.43
2022-12-03T04:15:29.390Z,14.00
2022-12-03T04:18:15.012Z,13.80
2022-12-03T04:20:41.677Z,13.57
2022-12-03T04:23:09.059Z,14.45
2022-12-03T04:25:54.117Z,13.82
2022-12-03T04:28:39.691Z,11.52
2022-12-03T04:31:25.358Z,13.77
2022-12-03T04:34:10.961Z,12.07
2022-12-03T04:36:37.405Z,14.10
2022-12-03T04:39:04.521Z,13.77
2022-12-03T04:41:31.028Z,14.10
2022-12-03T04:44:16.072Z,13.90
2022-12-03T04:46:42.458Z,13.63
2022-12-03T04:49:08.915Z,13.77
2022-12-03T04:51:35.565Z,14.20
2022-12-03T04:54:02.850Z,13.43
2022-12-03T04:56:29.374Z,13.30
2022-12-03T04:58:55.847Z,14.02
2022-12-03T05:01:22.621Z,13.45
2022-12-03T05:03:49.240Z,14.43
2022-12-03T05:06:15.700Z,14.18
2022-12-03T05:08:42.196Z,13.68
2022-12-03T05:11:08.702Z,14.57
2022-12-03T05:13:35.328Z,14.80
2022-12-03T05:16:01.803Z,13.65
2022-12-03T05:18:28.288Z,14.50
2022-12-03T05:20:54.904Z,14.88
2022-12-03T05:23:21.814Z,13.52
2022-12-03T05:25:48.463Z,15.43
2022-12-03T05:28:15.046Z,15.50
2022-12-03T05:30:41.574Z,13.65
2022-12-03T05:33:08.171Z,15.93
2022-12-03T05:35:34.743Z,15.27
2022-12-03T05:38:01.286Z,15.50
2022-12-03T05:40:28.664Z,15.00
2022-12-03T05:42:56.589Z,15.38
2022-12-03T05:45:32.296Z,16.38
2022-12-03T05:48:00.527Z,16.45
2022-12-03T05:50:30.440Z,15.90
2022-12-03T05:52:57.851Z,15.88
2022-12-03T05:55:25.064Z,16.23
2022-12-03T05:57:51.831Z,16.80
2022-12-03T06:00:27.479Z,15.98
2022-12-03T06:02:54.739Z,15.32
2022-12-03T06:05:22.406Z,15.45
2022-12-03T06:07:50.611Z,14.88
2022-12-03T06:10:20.599Z,14.30
2022-12-03T06:12:47.160Z,16.95
2022-12-03T06:15:14.131Z,14.93
2022-12-03T06:17:41.499Z,13.73
2022-12-03T06:20:10.267Z,14.93
2022-12-03T06:22:36.688Z,16.52
2022-12-03T06:25:07.162Z,15.88
2022-12-03T06:27:34.134Z,15.57
2022-12-03T06:30:00.581Z,14.90
2022-12-03T06:32:27.034Z,15.82
2022-12-03T06:34:53.667Z,15.85
2022-12-03T06:37:20.531Z,16.23
2022-12-03T06:39:46.972Z,16.02
2022-12-03T06:42:13.567Z,14.82
2022-12-03T06:44:39.961Z,15.63
2022-12-03T06:47:06.492Z,15.98
2022-12-03T06:49:33.177Z,15.93
2022-12-03T06:51:59.608Z,15.57
2022-12-03T06:54:26.161Z,15.60
2022-12-03T06:56:52.592Z,15.77
2022-12-03T06:59:19.052Z,15.95
2022-12-03T07:01:45.607Z,14.77
2022-12-03T07:04:12.167Z,15.48
2022-12-03T07:06:38.645Z,15.55
2022-12-03T07:09:05.142Z,13.93
2022-12-03T07:11:31.549Z,15.25
2022-12-03T07:14:04.759Z,15.15
2022-12-03T07:16:32.411Z,15.45
2022-12-03T07:18:58.910Z,15.25
2022-12-03T07:21:25.361Z,14.80
2022-12-03T07:23:51.880Z,15.38
2022-12-03T07:26:18.310Z,14.82
2022-12-03T07:28:44.803Z,15.65
2022-12-03T07:31:11.366Z,15.70
2022-12-03T07:33:37.966Z,16.00
2022-12-03T07:36:04.516Z,13.23
2022-12-03T07:38:30.933Z,13.82
2022-12-03T07:40:57.330Z,15.57
2022-12-03T07:43:23.834Z,15.15
2022-12-03T07:45:50.319Z,14.95
2022-12-03T07:48:16.731Z,15.80
2022-12-03T07:50:43.253Z,16.27
2022-12-03T07:53:09.755Z,16.42
2022-12-03T07:55:36.179Z,15.45
2022-12-03T07:58:03.080Z,16.35
2022-12-03T08:00:29.664Z,16.38
2022-12-03T08:02:56.119Z,16.13
2022-12-03T08:05:22.531Z,15.48
2022-12-03T08:07:49.026Z,15.95
2022-12-03T08:10:15.627Z,15.43
2022-12-03T08:12:42.094Z,16.40
2022-12-03T08:15:19.859Z,15.00
2022-12-03T08:17:51.527Z,14.65
2022-12-03T08:20:21.226Z,15.18
2022-12-03T08:22:53.731Z,17.30
2022-12-03T08:25:20.183Z,16.40
2022-12-03T08:27:46.807Z,15.05
2022-12-03T08:30:15.775Z,16.33
2022-12-03T08:32:42.879Z,17.05
2022-12-03T08:35:14.939Z,15.32
2022-12-03T08:37:41.526Z,15.68
2022-12-03T08:40:25.622Z,15.95
2022-12-03T08:42:52.044Z,15.50
2022-12-03T08:45:32.008Z,16.20
2022-12-03T08:48:00.556Z,17.10
2022-12-03T08:50:28.493Z,16.25
2022-12-03T08:52:59.245Z,15.73
2022-12-03T08:55:33.603Z,16.38
2022-12-03T08:58:00.195Z,16.23
2022-12-03T09:00:26.695Z,16.13
2022-12-03T09:02:58.925Z,15.82
2022-12-03T09:05:29.649Z,16.17
2022-12-03T09:07:56.272Z,16.13
2022-12-03T09:10:22.762Z,17.63
2022-12-03T09:12:49.166Z,15.57
2022-12-03T09:15:15.744Z,16.08
2022-12-03T09:17:42.223Z,15.43
2022-12-03T09:20:09.602Z,16.17
2022-12-03T09:22:36.190Z,17.08
2022-12-03T09:25:02.630Z,15.98
2022-12-03T09:27:29.156Z,14.90
2022-12-03T09:29:55.615Z,15.95
2022-12-03T09:32:25.505Z,17.80
2022-12-03T09:34:52.365Z,14.90
2022-12-03T09:37:19.118Z,16.85
2022-12-03T09:39:45.629Z,17.40
2022-12-03T09:42:12.944Z,15.40
2022-12-03T09:44:39.548Z,15.05
2022-12-03T09:47:06.957Z,13.60
2022-12-03T09:49:37.073Z,14.02
2022-12-03T09:52:05.527Z,14.13
2022-12-03T09:54:32.858Z,13.88
2022-12-03T09:57:02.649Z,13.35
2022-12-03T09:59:34.716Z,12.40
2022-12-03T10:02:02.110Z,11.98
2022-12-03T10:04:29.413Z,13.32
2022-12-03T10:06:57.478Z,12.25
2022-12-03T10:09:26.147Z,12.82
2022-12-03T10:11:52.923Z,11.25
2022-12-03T10:14:19.965Z,12.75
2022-12-03T10:16:46.616Z,12.43
2022-12-03T10:19:21.106Z,14.18
2022-12-03T10:21:47.735Z,13.15
2022-12-03T10:24:28.817Z,13.02
2022-12-03T10:26:57.850Z,13.97
2022-12-03T10:29:34.025Z,12.93
2022-12-03T10:32:06.815Z,13.15
2022-12-03T10:34:38.830Z,13.43
2022-12-03T10:37:12.270Z,13.75
2022-12-03T10:40:14.288Z,14.38
2022-12-03T10:42:41.352Z,12.68
2022-12-03T10:45:23.406Z,14.80
2022-12-03T10:48:05.723Z,13.68
2022-12-03T10:50:33.496Z,13.70
2022-12-03T10:52:59.987Z,13.68
2022-12-03T10:55:28.766Z,14.88
2022-12-03T10:57:55.227Z,13.85
2022-12-03T11:00:22.719Z,14.40
2022-12-03T11:02:56.354Z,15.35
2022-12-03T11:05:29.323Z,14.68
2022-12-03T11:07:56.569Z,14.18
2022-12-03T11:10:23.771Z,14.43
2022-12-03T11:13:27.674Z,13.38
2022-12-03T11:15:54.592Z,13.52
2022-12-03T11:18:35.952Z,13.10
2022-12-03T11:21:13.415Z,13.80
2022-12-03T11:23:45.992Z,12.13
2022-12-03T11:26:18.849Z,13.20
2022-12-03T11:28:46.072Z,13.35
2022-12-03T11:31:35.061Z,13.05
2022-12-03T11:34:33.501Z,12.25
2022-12-03T11:37:12.236Z,12.23
2022-12-03T11:39:44.647Z,12.13
2022-12-03T11:42:26.376Z,11.85
2022-12-03T11:45:11.113Z,10.35
2022-12-03T11:47:46.770Z,9.57
2022-12-03T11:50:28.265Z,11.13
2022-12-03T11:53:00.254Z,11.68
2022-12-03T11:55:31.124Z,9.50
2022-12-03T11:58:04.642Z,9.30
2022-12-03T12:00:31.503Z,13.68
2022-12-03T12:02:58.997Z,18.98
2022-12-03T12:05:29.671Z,10.43
2022-12-03T12:07:56.834Z,10.50
2022-12-03T12:10:43.326Z,10.15
2022-12-03T12:13:33.752Z,10.00
2022-12-03T12:16:06.886Z,10.35
2022-12-03T12:18:37.596Z,9.55
2022-12-03T12:21:47.499Z,10.15
2022-12-03T12:24:47.854Z,10.07
2022-12-03T12:27:24.611Z,10.40
2022-12-03T12:29:57.010Z,11.65
2022-12-03T12:32:29.703Z,11.32
2022-12-03T12:35:27.272Z,12.02
2022-12-03T12:38:14.721Z,12.50
2022-12-03T12:40:45.016Z,10.50
2022-12-03T12:43:25.295Z,12.35
2022-12-03T12:45:57.049Z,11.50
2022-12-03T12:48:28.815Z,11.45
2022-12-03T12:53:36.795Z,11.10
2022-12-03T12:56:23.659Z,9.15
2022-12-03T12:58:50.207Z,10.00
2022-12-03T13:01:24.353Z,10.48
2022-12-03T13:03:52.489Z,10.98
2022-12-03T13:06:25.447Z,13.07
2022-12-03T13:08:53.318Z,17.65
2022-12-03T13:11:42.181Z,24.75
2022-12-03T13:14:26.659Z,11.80
2022-12-03T13:16:56.617Z,15.02
2022-12-03T13:19:28.390Z,12.13
2022-12-03T13:21:56.836Z,14.70
2022-12-03T13:24:37.437Z,13.98
2022-12-03T13:27:16.015Z,13.98
2022-12-03T13:29:42.818Z,15.10
2022-12-03T13:32:17.988Z,20.33
2022-12-03T13:34:45.358Z,23.08
2022-12-03T13:37:26.986Z,19.70
2022-12-03T13:39:57.411Z,25.08
2022-12-03T13:42:42.185Z,20.02
2022-12-03T13:45:14.850Z,16.88
2022-12-03T13:47:41.902Z,14.80
2022-12-03T13:50:41.926Z,15.90
2022-12-03T13:53:11.399Z,16.85
2022-12-03T13:55:42.727Z,17.10
2022-12-03T13:58:09.256Z,16.83
2022-12-03T14:00:35.769Z,16.17
2022-12-03T14:03:05.370Z,19.10
2022-12-03T14:05:31.816Z,22.73
2022-12-03T14:08:01.572Z,18.30
2022-12-03T14:10:29.253Z,20.40
2022-12-03T14:12:56.594Z,18.33
2022-12-03T14:15:23.494Z,18.70
2022-12-03T14:17:49.958Z,18.13
2022-12-03T14:20:16.489Z,17.90
2022-12-03T14:22:43.214Z,17.15
2022-12-03T14:25:10.545Z,18.08
2022-12-03T14:27:37.655Z,15.00
2022-12-03T14:30:05.168Z,16.33
2022-12-03T14:32:31.769Z,15.57
2022-12-03T14:34:58.223Z,12.32
2022-12-03T14:37:24.648Z,15.27
2022-12-03T14:39:51.101Z,16.75
2022-12-03T14:42:18.286Z,17.15
2022-12-03T14:44:47.459Z,14.57
2022-12-03T14:47:15.925Z,14.45
2022-12-03T14:49:42.746Z,18.70
2022-12-03T14:52:12.281Z,12.63
2022-12-03T14:54:41.672Z,14.75
2022-12-03T14:57:08.438Z,16.63
2022-12-03T14:59:34.870Z,15.70
2022-12-03T15:02:01.359Z,16.77
2022-12-03T15:04:27.948Z,14.75
2022-12-03T15:06:54.435Z,15.00
2022-12-03T15:09:21.078Z,13.90
2022-12-03T15:11:47.523Z,14.13
2022-12-03T15:14:14.491Z,12.35
2022-12-03T15:16:41.069Z,13.98
2022-12-03T15:19:07.585Z,14.52
2022-12-03T15:21:34.874Z,12.80
2022-12-03T15:24:02.259Z,14.80
2022-12-03T15:26:29.521Z,13.82
2022-12-03T15:28:56.046Z,14.13
2022-12-03T15:31:22.511Z,13.20
2022-12-03T15:33:49.155Z,17.30
2022-12-03T15:36:15.669Z,16.42
2022-12-03T15:38:42.081Z,14.80
2022-12-03T15:41:21.601Z,15.40
2022-12-03T15:43:49.074Z,20.98
2022-12-03T15:46:16.068Z,16.33
2022-12-03T15:48:42.612Z,17.05
2022-12-03T15:51:09.188Z,15.73
2022-12-03T15:53:35.974Z,17.88
2022-12-03T15:56:02.532Z,17.52
2022-12-03T15:58:29.018Z,18.40
2022-12-03T16:00:55.622Z,21.33
2022-12-03T16:03:22.221Z,19.15
2022-12-03T16:05:48.772Z,19.15
2022-12-03T16:08:15.560Z,18.95
2022-12-03T16:10:42.159Z,17.73
2022-12-03T16:13:08.677Z,19.77
2022-12-03T16:15:35.737Z,17.55
2022-12-03T16:18:02.338Z,18.75
2022-12-03T16:20:28.854Z,18.88
2022-12-03T16:22:55.373Z,18.05
2022-12-03T16:25:21.882Z,17.00
2022-12-03T16:27:48.595Z,23.00
2022-12-03T16:30:15.326Z,18.30
2022-12-03T16:32:42.227Z,20.35
2022-12-03T16:35:08.831Z,18.05
2022-12-03T16:37:35.246Z,17.02
2022-12-03T16:40:01.750Z,18.40
2022-12-03T16:42:28.379Z,22.50
2022-12-03T16:45:14.883Z,18.80
2022-12-03T16:47:41.356Z,19.10
2022-12-03T16:50:10.682Z,16.83
2022-12-03T16:52:40.720Z,17.02
2022-12-03T16:55:07.732Z,17.05
2022-12-03T16:57:34.223Z,18.63
2022-12-03T17:00:01.158Z,20.00
2022-12-03T17:02:27.914Z,17.23
2022-12-03T17:04:54.726Z,17.92
2022-12-03T17:07:21.243Z,17.75
2022-12-03T17:09:47.770Z,17.50
2022-12-03T17:12:14.939Z,17.08
2022-12-03T17:14:41.369Z,18.65
2022-12-03T17:17:07.779Z,19.00
2022-12-03T17:19:34.281Z,17.08
2022-12-03T17:22:00.718Z,18.95
2022-12-03T17:24:27.144Z,15.07
2022-12-03T17:26:53.589Z,18.65
2022-12-03T17:29:20.062Z,17.98
2022-12-03T17:31:46.579Z,16.23
2022-12-03T17:34:13.176Z,17.58
2022-12-03T17:36:39.767Z,17.15
2022-12-03T17:39:06.236Z,17.48
2022-12-03T17:41:32.672Z,17.77
2022-12-03T17:43:59.202Z,19.90
2022-12-03T17:46:25.689Z,19.10
2022-12-03T17:48:52.095Z,18.98
2022-12-03T17:51:20.839Z,17.75
2022-12-03T17:53:47.399Z,18.15
2022-12-03T17:56:13.908Z,16.90
2022-12-03T17:58:40.490Z,18.10
2022-12-03T18:01:08.538Z,18.10
2022-12-03T18:03:35.066Z,16.42
2022-12-03T18:06:01.980Z,18.48
2022-12-03T18:08:28.859Z,17.70
2022-12-03T18:10:55.330Z,18.73
2022-12-03T18:13:21.881Z,18.10
2022-12-03T18:15:48.405Z,18.08
2022-12-03T18:18:14.956Z,18.55
2022-12-03T18:20:41.416Z,19.88
2022-12-03T18:23:07.887Z,20.58
2022-12-03T18:25:34.496Z,28.48
2022-12-03T18:28:00.988Z,21.85
2022-12-03T18:30:27.448Z,20.20
2022-12-03T18:32:54.138Z,19.85
2022-12-03T18:35:20.758Z,23.35
2022-12-03T18:37:49.923Z,21.95
2022-12-03T18:40:22.473Z,22.25
2022-12-03T18:42:48.987Z,26.33
2022-12-03T18:45:16.293Z,21.00
2022-12-03T18:47:43.321Z,21.63
2022-12-03T18:50:11.547Z,18.67
2022-12-03T18:52:38.072Z,19.17
2022-12-03T18:55:05.926Z,19.02
2022-12-03T18:57:32.360Z,19.00
2022-12-03T18:59:58.887Z,22.83
2022-12-03T19:02:54.197Z,19.35
2022-12-03T19:05:12.722Z,15.75
2022-12-03T19:07:39.259Z,23.83
2022-12-03T19:10:06.759Z,25.60
2022-12-03T19:12:33.454Z,20.77
2022-12-03T19:14:59.940Z,18.98
2022-12-03T19:17:27.289Z,18.30
2022-12-03T19:19:54.625Z,17.13
2022-12-03T19:22:21.624Z,23.17
2022-12-03T19:24:48.099Z,18.08
2022-12-03T19:27:15.115Z,20.38
2022-12-03T19:29:41.759Z,19.60
2022-12-03T19:32:08.849Z,18.75
2022-12-03T19:34:35.431Z,18.73
2022-12-03T19:37:01.934Z,17.63
2022-12-03T19:39:28.345Z,17.83
2022-12-03T19:41:54.779Z,17.83
2022-12-03T19:44:21.190Z,17.05
2022-12-03T19:46:49.452Z,20.60
2022-12-03T19:49:18.461Z,16.65
2022-12-03T19:51:44.959Z,19.77
2022-12-03T19:54:11.900Z,18.52
2022-12-03T19:56:38.934Z,19.08
2022-12-03T19:59:06.456Z,18.70
2022-12-03T20:01:35.134Z,19.23
2022-12-03T20:04:03.307Z,19.27
2022-12-03T20:06:32.792Z,25.88
2022-12-03T20:09:05.810Z,22.67
2022-12-03T20:11:33.504Z,22.23
2022-12-03T20:14:06.091Z,25.70
2022-12-03T20:16:33.778Z,19.42
2022-12-03T20:19:04.884Z,19.83
2022-12-03T20:21:34.253Z,17.55
2022-12-03T20:24:00.926Z,18.27
2022-12-03T20:26:28.413Z,18.40
2022-12-03T20:28:55.643Z,18.65
2022-12-03T20:31:24.787Z,16.20
2022-12-03T20:33:54.279Z,17.05
2022-12-03T20:36:22.616Z,15.63
2022-12-03T20:38:53.912Z,19.23
2022-12-03T20:41:20.842Z,17.42
2022-12-03T20:43:47.953Z,15.20
2022-12-03T20:46:23.655Z,18.65
2022-12-03T20:48:50.191Z,16.38
2022-12-03T20:51:18.975Z,20.17
2022-12-03T20:53:45.786Z,17.60
2022-12-03T20:56:20.247Z,17.85
2022-12-03T20:58:48.770Z,18.52
2022-12-03T21:01:24.390Z,17.40
2022-12-03T21:03:53.423Z,18.38
2022-12-03T21:06:22.034Z,17.48
2022-12-03T21:08:48.979Z,17.52
2022-12-03T21:11:21.564Z,18.17
2022-12-03T21:13:48.047Z,16.25
2022-12-03T21:16:18.163Z,15.85
2022-12-03T21:18:45.225Z,17.45
2022-12-03T21:21:14.155Z,16.83
2022-12-03T21:23:41.184Z,17.38
2022-12-03T21:26:21.642Z,19.00
2022-12-03T21:28:50.673Z,17.05
2022-12-03T21:31:23.341Z,16.00
2022-12-03T21:33:49.807Z,15.48
2022-12-03T21:36:16.879Z,16.75
2022-12-03T21:38:44.708Z,16.23
2022-12-03T21:41:12.244Z,18.13
2022-12-03T21:43:38.880Z,18.70
2022-12-03T21:47:11.971Z,18.02
2022-12-03T21:48:54.375Z,17.13
2022-12-03T21:51:20.815Z,17.15
2022-12-03T21:53:47.710Z,17.67
2022-12-03T21:56:19.719Z,18.20
2022-12-03T21:58:46.668Z,19.10
2022-12-03T22:01:22.472Z,19.60
2022-12-03T22:03:49.693Z,18.42
2022-12-03T22:06:17.217Z,17.80
2022-12-03T22:08:44.066Z,18.70
2022-12-03T22:11:13.370Z,19.38
2022-12-03T22:13:40.645Z,19.52
2022-12-03T22:16:10.072Z,17.08
2022-12-03T22:18:36.993Z,17.45
2022-12-03T22:21:09.383Z,18.63
2022-12-03T22:23:36.102Z,17.52
2022-12-03T22:26:05.878Z,17.38
2022-12-03T22:28:32.987Z,18.42
2022-12-03T22:30:59.663Z,18.13
2022-12-03T22:33:26.316Z,19.13
2022-12-03T22:36:01.165Z,18.20
2022-12-03T22:38:29.667Z,17.27
2022-12-03T22:40:56.480Z,17.73
2022-12-03T22:43:23.410Z,17.73
2022-12-03T22:45:54.637Z,16.50
2022-12-03T22:48:22.315Z,17.88
2022-12-03T22:50:49.888Z,17.65
2022-12-03T22:53:17.202Z,19.10
2022-12-03T22:55:43.880Z,18.48
2022-12-03T22:58:11.138Z,17.25
2022-12-03T23:00:40.077Z,18.17
2022-12-03T23:03:07.606Z,18.10
2022-12-03T23:05:36.846Z,18.23
2022-12-03T23:08:08.859Z,18.83
2022-12-03T23:10:40.548Z,19.55
2022-12-03T23:13:07.864Z,18.80
2022-12-03T23:15:34.456Z,18.67
2022-12-03T23:18:01.440Z,18.75
2022-12-03T23:20:28.527Z,19.55
2022-12-03T23:22:55.348Z,18.38
2022-12-03T23:25:22.379Z,19.85
2022-12-03T23:30:16.508Z,19.98
2022-12-03T23:32:44.320Z,19.02
2022-12-03T23:35:12.213Z,20.02
2022-12-03T23:37:38.884Z,19.88
2022-12-03T23:40:06.164Z,19.52
2022-12-03T23:42:32.618Z,19.45
2022-12-03T23:44:59.083Z,19.65
2022-12-03T23:47:25.486Z,18.15
2022-12-03T23:49:52.140Z,19.00
2022-12-03T23:52:18.764Z,17.40
2022-12-03T23:54:46.054Z,19.27
2022-12-03T23:57:12.739Z,19.25
2022-12-03T23:59:39.646Z,19.27
